createdAt,value
2018-03-15T00:02:31.358Z,7.31
2018-03-15T00:04:58.977Z,7.30
2018-03-15T00:07:26.631Z,7.26
2018-03-15T00:09:54.378Z,7.26
2018-03-15T00:12:22.015Z,7.22
2018-03-15T00:14:49.643Z,7.19
2018-03-15T00:17:17.210Z,7.17
2018-03-15T00:19:44.844Z,7.16
2018-03-15T00:22:12.475Z,7.14
2018-03-15T00:24:40.091Z,7.15
2018-03-15T00:27:07.703Z,7.16
2018-03-15T00:29:35.315Z,7.09
2018-03-15T00:32:03.062Z,7.06
2018-03-15T00:34:30.688Z,7.06
2018-03-15T00:36:58.270Z,7.05
2018-03-15T00:39:25.894Z,7.00
2018-03-15T00:41:53.567Z,6.97
2018-03-15T00:44:21.190Z,6.94
2018-03-15T00:46:48.922Z,6.88
2018-03-15T00:49:16.540Z,6.89
2018-03-15T00:51:44.191Z,6.97
2018-03-15T00:54:11.822Z,6.89
2018-03-15T00:56:39.407Z,6.86
2018-03-15T00:59:07.038Z,6.85
2018-03-15T01:01:34.731Z,6.88
2018-03-15T01:04:02.363Z,6.89
2018-03-15T01:06:29.951Z,6.84
2018-03-15T01:08:57.579Z,6.82
2018-03-15T01:11:25.230Z,6.80
2018-03-15T01:13:52.922Z,6.80
2018-03-15T01:16:20.516Z,6.75
2018-03-15T01:18:48.137Z,6.72
2018-03-15T01:21:15.725Z,6.74
2018-03-15T01:23:43.376Z,6.71
2018-03-15T01:26:10.989Z,6.72
2018-03-15T01:28:38.678Z,6.74
2018-03-15T01:31:06.378Z,6.72
2018-03-15T01:33:34.006Z,6.72
2018-03-15T01:36:01.615Z,6.65
2018-03-15T01:38:29.312Z,6.62
2018-03-15T01:40:56.900Z,6.61
2018-03-15T01:43:24.519Z,6.59
2018-03-15T01:45:52.116Z,6.60
2018-03-15T01:48:19.705Z,6.60
2018-03-15T01:50:47.439Z,6.56
2018-03-15T01:53:15.044Z,6.49
2018-03-15T01:55:42.699Z,6.51
2018-03-15T01:58:10.402Z,6.52
2018-03-15T02:00:38.026Z,6.49
2018-03-15T02:03:05.623Z,6.46
2018-03-15T02:05:33.412Z,6.43
2018-03-15T02:08:00.999Z,6.41
2018-03-15T02:10:28.617Z,6.46
2018-03-15T02:12:56.211Z,6.47
2018-03-15T02:15:23.825Z,6.43
2018-03-15T02:17:51.430Z,6.42
2018-03-15T02:20:19.081Z,6.45
2018-03-15T02:22:46.661Z,6.43
2018-03-15T02:25:14.270Z,6.43
2018-03-15T02:27:41.863Z,6.40
2018-03-15T02:30:09.496Z,6.40
2018-03-15T02:32:37.224Z,6.42
2018-03-15T02:35:04.843Z,6.37
2018-03-15T02:37:32.428Z,6.40
2018-03-15T02:40:00.048Z,6.37
2018-03-15T02:42:27.635Z,6.35
2018-03-15T02:44:55.250Z,6.32
2018-03-15T02:47:22.866Z,6.32
2018-03-15T02:49:50.493Z,6.34
2018-03-15T02:52:18.070Z,6.31
2018-03-15T02:54:45.683Z,6.32
2018-03-15T02:57:13.275Z,6.30
2018-03-15T02:59:40.887Z,6.31
2018-03-15T03:02:08.476Z,6.33
2018-03-15T03:04:36.098Z,6.36
2018-03-15T03:07:03.684Z,6.36
2018-03-15T03:09:31.283Z,6.32
2018-03-15T03:11:58.905Z,6.34
2018-03-15T03:14:26.518Z,6.31
2018-03-15T03:16:54.230Z,6.29
2018-03-15T03:19:21.847Z,6.36
2018-03-15T03:21:49.473Z,6.30
2018-03-15T03:24:17.054Z,6.31
2018-03-15T03:26:44.673Z,6.30
2018-03-15T03:29:12.282Z,6.24
2018-03-15T03:31:39.874Z,6.22
2018-03-15T03:34:07.481Z,6.21
2018-03-15T03:36:35.077Z,6.18
2018-03-15T03:39:02.695Z,6.15
2018-03-15T03:41:30.344Z,6.16
2018-03-15T03:43:58.122Z,6.20
2018-03-15T03:46:25.741Z,6.24
2018-03-15T03:48:53.333Z,6.19
2018-03-15T03:51:20.911Z,6.18
2018-03-15T03:53:48.522Z,6.14
2018-03-15T03:56:16.102Z,6.15
2018-03-15T03:58:43.731Z,6.21
2018-03-15T04:01:11.318Z,6.19
2018-03-15T04:03:38.959Z,6.19
2018-03-15T04:06:06.534Z,6.17
2018-03-15T04:08:34.155Z,6.15
2018-03-15T04:11:01.740Z,6.16
2018-03-15T04:13:29.351Z,6.13
2018-03-15T04:15:56.922Z,6.14
2018-03-15T04:18:24.522Z,6.18
2018-03-15T04:20:52.156Z,6.12
2018-03-15T04:23:19.866Z,6.10
2018-03-15T04:25:47.456Z,6.06
2018-03-15T04:28:15.066Z,6.06
2018-03-15T04:30:42.730Z,6.09
2018-03-15T04:33:10.337Z,6.08
2018-03-15T04:35:37.926Z,6.06
2018-03-15T04:38:05.557Z,6.08
2018-03-15T04:40:33.149Z,6.05
2018-03-15T04:43:00.759Z,6.03
2018-03-15T04:45:28.350Z,6.04
2018-03-15T04:47:55.962Z,6.01
2018-03-15T04:50:23.559Z,6.07
2018-03-15T04:52:51.364Z,5.98
2018-03-15T04:55:18.978Z,5.98
2018-03-15T04:57:46.589Z,6.00
2018-03-15T05:00:14.170Z,6.03
2018-03-15T05:02:41.793Z,5.99
2018-03-15T05:05:09.395Z,5.94
2018-03-15T05:07:37.005Z,5.91
2018-03-15T05:10:04.587Z,5.93
2018-03-15T05:12:32.195Z,5.97
2018-03-15T05:14:59.834Z,5.96
2018-03-15T05:17:27.530Z,5.91
2018-03-15T05:19:55.111Z,5.88
2018-03-15T05:22:22.727Z,5.88
2018-03-15T05:24:50.441Z,5.91
2018-03-15T05:27:18.064Z,5.91
2018-03-15T05:29:45.655Z,5.88
2018-03-15T05:32:13.293Z,5.93
2018-03-15T05:34:40.894Z,5.94
2018-03-15T05:37:08.493Z,5.90
2018-03-15T05:39:36.084Z,5.92
2018-03-15T05:42:03.703Z,5.95
2018-03-15T05:44:31.303Z,5.94
2018-03-15T05:46:58.925Z,5.96
2018-03-15T05:49:26.590Z,5.96
2018-03-15T05:51:54.167Z,5.99
2018-03-15T05:54:21.793Z,6.00
2018-03-15T05:56:49.370Z,5.96
2018-03-15T05:59:16.986Z,5.95
2018-03-15T06:01:44.681Z,5.96
2018-03-15T06:04:12.287Z,6.00
2018-03-15T06:06:39.886Z,6.01
2018-03-15T06:09:07.502Z,6.02
2018-03-15T06:11:35.083Z,6.06
2018-03-15T06:14:02.760Z,6.06
2018-03-15T06:16:30.430Z,6.08
2018-03-15T06:18:58.491Z,6.12
2018-03-15T06:21:26.075Z,6.17
2018-03-15T06:23:53.697Z,6.17
2018-03-15T06:26:21.286Z,6.21
2018-03-15T06:28:48.907Z,6.22
2018-03-15T06:31:16.854Z,6.24
2018-03-15T06:33:44.490Z,6.25
2018-03-15T06:36:12.090Z,6.29
2018-03-15T06:38:39.767Z,6.32
2018-03-15T06:41:07.377Z,6.34
2018-03-15T06:43:34.982Z,6.35
2018-03-15T06:46:02.593Z,6.38
2018-03-15T06:48:30.345Z,6.44
2018-03-15T06:50:58.039Z,6.51
2018-03-15T06:53:25.781Z,6.55
2018-03-15T06:55:53.361Z,6.60
2018-03-15T06:58:21.001Z,6.65
2018-03-15T07:00:48.596Z,6.68
2018-03-15T07:03:16.228Z,6.72
2018-03-15T07:05:43.818Z,6.76
2018-03-15T07:08:11.446Z,6.77
2018-03-15T07:10:39.046Z,6.78
2018-03-15T07:13:06.658Z,6.75
2018-03-15T07:15:34.242Z,6.77
2018-03-15T07:18:01.957Z,6.76
2018-03-15T07:20:29.606Z,6.80
2018-03-15T07:22:57.226Z,6.83
2018-03-15T07:25:24.819Z,6.88
2018-03-15T07:27:52.432Z,6.94
2018-03-15T07:30:20.159Z,7.02
2018-03-15T07:32:47.838Z,7.13
2018-03-15T07:35:15.442Z,7.21
2018-03-15T07:37:43.067Z,7.31
2018-03-15T07:40:10.678Z,7.40
2018-03-15T07:42:38.313Z,7.48
2018-03-15T07:45:05.911Z,7.59
2018-03-15T07:47:33.550Z,7.69
2018-03-15T07:50:01.155Z,7.73
2018-03-15T07:52:28.879Z,7.74
2018-03-15T07:54:56.464Z,7.77
2018-03-15T07:57:24.098Z,7.78
2018-03-15T07:59:51.823Z,7.83
2018-03-15T08:02:19.426Z,7.91
2018-03-15T08:04:47.165Z,7.96
2018-03-15T08:07:14.812Z,8.02
2018-03-15T08:09:42.500Z,8.02
2018-03-15T08:12:10.085Z,8.06
2018-03-15T08:14:37.751Z,8.12
2018-03-15T08:17:05.313Z,8.23
2018-03-15T08:19:33.136Z,8.28
2018-03-15T08:22:00.754Z,8.31
2018-03-15T08:24:28.331Z,8.36
2018-03-15T08:26:56.493Z,8.42
2018-03-15T08:29:24.223Z,8.46
2018-03-15T08:31:51.832Z,8.52
2018-03-15T08:34:19.427Z,8.62
2018-03-15T08:36:47.020Z,8.64
2018-03-15T08:39:14.648Z,8.68
2018-03-15T08:41:42.273Z,8.80
2018-03-15T08:44:09.854Z,8.92
2018-03-15T08:46:37.496Z,9.04
2018-03-15T08:49:05.179Z,9.14
2018-03-15T08:51:32.759Z,9.21
2018-03-15T08:54:00.397Z,9.22
2018-03-15T08:56:28.043Z,9.25
2018-03-15T08:58:55.654Z,9.25
2018-03-15T09:01:23.250Z,9.37
2018-03-15T09:03:50.855Z,9.37
2018-03-15T09:06:18.472Z,9.39
2018-03-15T09:08:46.219Z,9.44
2018-03-15T09:11:13.794Z,9.48
2018-03-15T09:13:41.526Z,9.51
2018-03-15T09:16:09.274Z,9.64
2018-03-15T09:18:36.915Z,9.69
2018-03-15T09:21:04.502Z,9.78
2018-03-15T09:23:32.134Z,9.87
2018-03-15T09:25:59.710Z,9.91
2018-03-15T09:28:27.386Z,10.00
2018-03-15T09:30:54.995Z,10.09
2018-03-15T09:33:22.634Z,10.22
2018-03-15T09:35:50.249Z,10.36
2018-03-15T09:38:17.870Z,10.41
2018-03-15T09:40:45.463Z,10.46
2018-03-15T09:43:13.085Z,10.59
2018-03-15T09:45:40.680Z,10.60
2018-03-15T09:48:08.327Z,10.57
2018-03-15T09:50:35.918Z,10.62
2018-03-15T09:53:03.539Z,10.66
2018-03-15T09:55:31.175Z,10.67
2018-03-15T09:57:58.823Z,10.85
2018-03-15T10:00:26.434Z,10.96
2018-03-15T10:02:54.063Z,10.98
2018-03-15T10:05:21.660Z,11.01
2018-03-15T10:07:49.292Z,11.12
2018-03-15T10:10:16.903Z,11.14
2018-03-15T10:12:44.534Z,11.23
2018-03-15T10:15:18.699Z,11.36
2018-03-15T10:17:46.323Z,11.43
2018-03-15T10:20:13.922Z,11.50
2018-03-15T10:22:41.530Z,11.65
2018-03-15T10:25:13.769Z,11.64
2018-03-15T10:27:36.742Z,11.84
2018-03-15T10:30:04.333Z,11.90
2018-03-15T10:32:31.955Z,11.90
2018-03-15T10:35:05.263Z,11.80
2018-03-15T10:37:38.794Z,11.92
2018-03-15T10:40:06.390Z,12.17
2018-03-15T10:42:34.009Z,12.27
2018-03-15T10:45:01.641Z,12.32
2018-03-15T10:47:29.467Z,12.32
2018-03-15T10:49:57.067Z,12.45
2018-03-15T10:52:24.689Z,12.41
2018-03-15T10:54:52.309Z,12.59
2018-03-15T10:57:19.944Z,12.61
2018-03-15T10:59:47.657Z,12.55
2018-03-15T11:02:19.163Z,12.58
2018-03-15T11:04:52.291Z,12.54
2018-03-15T11:07:25.447Z,12.61
2018-03-15T11:09:53.033Z,12.68
2018-03-15T11:12:20.669Z,12.67
2018-03-15T11:14:48.263Z,12.68
2018-03-15T11:17:15.926Z,12.81
2018-03-15T11:19:43.526Z,12.91
2018-03-15T11:22:11.111Z,12.97
2018-03-15T11:24:38.748Z,12.94
2018-03-15T11:27:06.472Z,12.99
2018-03-15T11:29:34.054Z,13.03
2018-03-15T11:32:01.776Z,13.06
2018-03-15T11:34:29.362Z,13.04
2018-03-15T11:36:57.262Z,13.10
2018-03-15T11:39:24.846Z,13.08
2018-03-15T11:41:52.535Z,13.11
2018-03-15T11:44:20.123Z,13.12
2018-03-15T11:46:47.724Z,13.13
2018-03-15T11:49:15.319Z,13.18
2018-03-15T11:51:42.943Z,13.17
2018-03-15T11:54:10.599Z,13.14
2018-03-15T11:56:38.222Z,13.23
2018-03-15T11:59:05.833Z,13.24
2018-03-15T12:01:33.466Z,13.31
2018-03-15T12:04:01.062Z,13.34
2018-03-15T12:06:28.759Z,13.28
2018-03-15T12:08:56.428Z,13.19
2018-03-15T12:11:24.005Z,13.13
2018-03-15T12:13:51.634Z,13.24
2018-03-15T12:16:19.383Z,13.26
2018-03-15T12:18:47.039Z,13.23
2018-03-15T12:21:14.658Z,13.29
2018-03-15T12:23:42.251Z,13.34
2018-03-15T12:26:09.836Z,13.39
2018-03-15T12:28:37.434Z,13.39
2018-03-15T12:31:05.075Z,13.34
2018-03-15T12:33:32.657Z,13.26
2018-03-15T12:36:00.290Z,13.23
2018-03-15T12:38:27.886Z,13.22
2018-03-15T12:40:55.506Z,13.20
2018-03-15T12:43:23.306Z,13.23
2018-03-15T12:45:50.974Z,13.24
2018-03-15T12:48:18.537Z,13.25
2018-03-15T12:50:46.192Z,13.30
2018-03-15T12:53:13.780Z,13.30
2018-03-15T12:55:41.545Z,13.26
2018-03-15T12:58:09.245Z,13.22
2018-03-15T13:00:37.022Z,13.20
2018-03-15T13:03:04.623Z,13.21
2018-03-15T13:05:32.235Z,13.22
2018-03-15T13:07:59.867Z,13.24
2018-03-15T13:10:27.446Z,13.25
2018-03-15T13:12:55.062Z,13.27
2018-03-15T13:15:22.645Z,13.27
2018-03-15T13:17:50.266Z,13.29
2018-03-15T13:20:17.854Z,13.25
2018-03-15T13:22:45.481Z,13.23
2018-03-15T13:25:13.121Z,13.26
2018-03-15T13:27:40.738Z,13.22
2018-03-15T13:30:08.398Z,13.20
2018-03-15T13:32:35.993Z,13.23
2018-03-15T13:35:03.576Z,13.17
2018-03-15T13:37:31.193Z,13.18
2018-03-15T13:39:58.771Z,13.16
2018-03-15T13:42:26.401Z,13.13
2018-03-15T13:44:53.990Z,13.14
2018-03-15T13:47:21.605Z,13.08
2018-03-15T13:49:49.205Z,13.09
2018-03-15T13:52:16.970Z,13.08
2018-03-15T13:54:44.559Z,13.09
2018-03-15T13:57:12.174Z,13.07
2018-03-15T13:59:39.755Z,13.08
2018-03-15T14:02:07.380Z,13.17
2018-03-15T14:04:34.989Z,13.15
2018-03-15T14:07:02.605Z,13.17
2018-03-15T14:09:30.230Z,13.15
2018-03-15T14:11:57.806Z,13.12
2018-03-15T14:14:25.440Z,13.10
2018-03-15T14:16:53.192Z,13.12
2018-03-15T14:19:20.822Z,13.11
2018-03-15T14:21:48.406Z,13.12
2018-03-15T14:24:16.030Z,13.09
2018-03-15T14:26:43.627Z,13.14
2018-03-15T14:29:11.249Z,13.09
2018-03-15T14:31:38.882Z,12.96
2018-03-15T14:34:06.522Z,12.95
2018-03-15T14:36:34.123Z,12.93
2018-03-15T14:39:01.737Z,12.90
2018-03-15T14:41:29.358Z,12.86
2018-03-15T14:43:56.997Z,12.85
2018-03-15T14:46:24.610Z,12.86
2018-03-15T14:48:52.222Z,12.84
2018-03-15T14:51:19.861Z,12.82
2018-03-15T14:53:47.473Z,12.80
2018-03-15T14:56:15.071Z,12.78
2018-03-15T14:58:42.682Z,12.80
2018-03-15T15:01:10.255Z,12.80
2018-03-15T15:03:37.978Z,12.83
2018-03-15T15:06:05.588Z,12.84
2018-03-15T15:08:33.207Z,12.84
2018-03-15T15:11:00.806Z,12.84
2018-03-15T15:13:28.439Z,12.84
2018-03-15T15:15:56.013Z,12.85
2018-03-15T15:18:23.774Z,12.89
2018-03-15T15:20:51.430Z,12.87
2018-03-15T15:23:19.016Z,12.90
2018-03-15T15:25:46.635Z,12.87
2018-03-15T15:28:14.238Z,12.87
2018-03-15T15:30:41.834Z,12.86
2018-03-15T15:33:09.450Z,12.84
2018-03-15T15:35:37.055Z,12.85
2018-03-15T15:38:04.694Z,12.87
2018-03-15T15:40:32.330Z,12.87
2018-03-15T15:42:59.938Z,12.83
2018-03-15T15:45:27.627Z,12.80
2018-03-15T15:47:55.275Z,12.77
2018-03-15T15:50:22.900Z,12.79
2018-03-15T15:52:50.636Z,12.76
2018-03-15T15:55:18.294Z,12.71
2018-03-15T15:57:45.988Z,12.70
2018-03-15T16:00:13.583Z,12.68
2018-03-15T16:02:41.212Z,12.67
2018-03-15T16:05:08.830Z,12.65
2018-03-15T16:07:36.451Z,12.60
2018-03-15T16:10:05.684Z,12.63
2018-03-15T16:12:33.833Z,12.62
2018-03-15T16:15:01.785Z,12.59
2018-03-15T16:17:29.437Z,12.57
2018-03-15T16:19:57.064Z,12.60
2018-03-15T16:22:24.666Z,12.66
2018-03-15T16:24:55.674Z,12.59
2018-03-15T16:27:23.368Z,12.56
2018-03-15T16:29:50.972Z,12.51
2018-03-15T16:32:18.668Z,12.50
2018-03-15T16:34:46.825Z,12.50
2018-03-15T16:37:14.502Z,12.48
2018-03-15T16:39:42.139Z,12.48
2018-03-15T16:42:10.291Z,12.46
2018-03-15T16:44:38.980Z,12.39
2018-03-15T16:47:06.561Z,12.36
2018-03-15T16:49:34.168Z,12.34
2018-03-15T16:52:01.816Z,12.37
2018-03-15T16:54:29.477Z,12.37
2018-03-15T16:56:58.096Z,12.34
2018-03-15T16:59:25.716Z,12.32
2018-03-15T17:01:53.369Z,12.31
2018-03-15T17:04:21.006Z,12.28
2018-03-15T17:06:48.640Z,12.28
2018-03-15T17:09:16.607Z,12.25
2018-03-15T17:11:44.983Z,12.22
2018-03-15T17:14:12.576Z,12.19
2018-03-15T17:16:40.232Z,12.16
2018-03-15T17:19:07.847Z,12.12
2018-03-15T17:21:35.510Z,12.13
2018-03-15T17:24:03.128Z,12.11
2018-03-15T17:26:30.769Z,12.07
2018-03-15T17:28:58.376Z,12.04
2018-03-15T17:31:26.024Z,12.00
2018-03-15T17:33:53.630Z,11.98
2018-03-15T17:36:21.252Z,11.97
2018-03-15T17:38:48.916Z,11.97
2018-03-15T17:41:16.512Z,11.96
2018-03-15T17:43:44.163Z,11.96
2018-03-15T17:46:11.882Z,11.94
2018-03-15T17:48:39.523Z,11.90
2018-03-15T17:51:07.219Z,11.92
2018-03-15T17:53:34.904Z,11.89
2018-03-15T17:56:02.537Z,11.85
2018-03-15T17:58:30.364Z,11.83
2018-03-15T18:00:57.977Z,11.83
2018-03-15T18:03:25.656Z,11.81
2018-03-15T18:05:53.267Z,11.79
2018-03-15T18:08:20.947Z,11.80
2018-03-15T18:10:48.608Z,11.72
2018-03-15T18:13:16.237Z,11.60
2018-03-15T18:15:43.913Z,11.63
2018-03-15T18:18:12.135Z,11.60
2018-03-15T18:20:39.811Z,11.52
2018-03-15T18:23:07.478Z,11.47
2018-03-15T18:25:35.177Z,11.39
2018-03-15T18:28:02.910Z,11.33
2018-03-15T18:30:30.595Z,11.23
2018-03-15T18:32:58.269Z,11.12
2018-03-15T18:35:25.890Z,11.03
2018-03-15T18:37:53.731Z,10.98
2018-03-15T18:40:21.389Z,10.95
2018-03-15T18:42:49.056Z,10.90
2018-03-15T18:45:16.707Z,10.88
2018-03-15T18:47:44.401Z,10.73
2018-03-15T18:50:12.178Z,10.61
2018-03-15T18:52:39.862Z,10.45
2018-03-15T18:55:07.486Z,10.32
2018-03-15T18:57:35.192Z,10.17
2018-03-15T19:00:02.822Z,9.97
2018-03-15T19:02:30.470Z,9.93
2018-03-15T19:04:58.258Z,9.85
2018-03-15T19:07:25.920Z,9.70
2018-03-15T19:09:53.524Z,9.63
2018-03-15T19:12:21.183Z,9.62
2018-03-15T19:14:48.792Z,9.62
2018-03-15T19:17:16.447Z,9.47
2018-03-15T19:19:44.159Z,9.37
2018-03-15T19:22:11.812Z,9.31
2018-03-15T19:24:39.421Z,9.25
2018-03-15T19:27:07.085Z,9.24
2018-03-15T19:29:34.744Z,9.25
2018-03-15T19:32:02.558Z,9.23
2018-03-15T19:34:30.207Z,9.23
2018-03-15T19:36:57.911Z,9.23
2018-03-15T19:39:25.551Z,9.22
2018-03-15T19:41:53.187Z,9.18
2018-03-15T19:44:20.849Z,9.08
2018-03-15T19:46:48.480Z,9.09
2018-03-15T19:49:16.171Z,9.13
2018-03-15T19:51:43.801Z,9.13
2018-03-15T19:54:11.463Z,9.15
2018-03-15T19:56:39.192Z,9.14
2018-03-15T19:59:06.843Z,9.20
2018-03-15T20:01:34.462Z,9.25
2018-03-15T20:04:02.160Z,9.26
2018-03-15T20:06:29.799Z,9.25
2018-03-15T20:08:57.464Z,9.20
2018-03-15T20:11:25.072Z,9.19
2018-03-15T20:13:53.214Z,9.25
2018-03-15T20:16:20.837Z,9.10
2018-03-15T20:18:50.215Z,9.01
2018-03-15T20:21:17.832Z,8.99
2018-03-15T20:23:51.033Z,8.98
2018-03-15T20:26:18.633Z,9.00
2018-03-15T20:28:47.028Z,9.03
2018-03-15T20:31:15.761Z,8.99
2018-03-15T20:33:49.014Z,8.93
2018-03-15T20:36:16.668Z,8.90
2018-03-15T20:38:44.301Z,8.85
2018-03-15T20:41:17.739Z,8.79
2018-03-15T20:43:45.382Z,8.77
2018-03-15T20:46:18.452Z,8.78
2018-03-15T20:48:51.643Z,8.84
2018-03-15T20:51:19.293Z,9.15
2018-03-15T20:53:46.915Z,8.99
2018-03-15T20:56:14.532Z,8.95
2018-03-15T20:58:42.170Z,8.90
2018-03-15T21:01:09.763Z,8.90
2018-03-15T21:03:37.406Z,8.88
2018-03-15T21:06:05.010Z,8.76
2018-03-15T21:08:32.639Z,8.74
2018-03-15T21:11:00.265Z,8.74
2018-03-15T21:13:27.966Z,8.67
2018-03-15T21:15:55.585Z,8.70
2018-03-15T21:18:23.227Z,8.69
2018-03-15T21:20:51.097Z,8.69
2018-03-15T21:23:18.765Z,8.71
2018-03-15T21:25:46.363Z,8.68
2018-03-15T21:28:14.761Z,8.73
2018-03-15T21:30:42.387Z,8.75
2018-03-15T21:33:10.057Z,8.78
2018-03-15T21:35:37.646Z,8.77
2018-03-15T21:38:05.256Z,8.79
2018-03-15T21:40:32.892Z,8.85
2018-03-15T21:43:00.626Z,8.79
2018-03-15T21:45:28.256Z,8.81
2018-03-15T21:47:55.911Z,8.79
2018-03-15T21:50:23.504Z,8.79
2018-03-15T21:52:51.155Z,8.81
2018-03-15T21:55:18.747Z,8.85
2018-03-15T21:57:46.407Z,8.83
2018-03-15T22:00:14.007Z,8.76
2018-03-15T22:02:41.639Z,8.72
2018-03-15T22:05:09.259Z,8.72
2018-03-15T22:07:36.891Z,8.70
2018-03-15T22:10:04.487Z,8.70
2018-03-15T22:12:32.125Z,8.75
2018-03-15T22:14:59.766Z,8.72
2018-03-15T22:17:27.455Z,8.78
2018-03-15T22:19:55.050Z,8.75
2018-03-15T22:22:22.735Z,8.70
2018-03-15T22:24:50.361Z,8.66
2018-03-15T22:27:17.987Z,8.64
2018-03-15T22:29:45.672Z,8.67
2018-03-15T22:32:13.280Z,8.69
2018-03-15T22:34:40.899Z,8.69
2018-03-15T22:37:08.489Z,8.78
2018-03-15T22:39:36.171Z,8.77
2018-03-15T22:42:03.866Z,8.74
2018-03-15T22:44:31.553Z,8.70
2018-03-15T22:46:59.166Z,8.70
2018-03-15T22:49:26.822Z,8.74
2018-03-15T22:51:54.421Z,8.71
2018-03-15T22:54:22.061Z,8.68
2018-03-15T22:56:49.675Z,8.77
2018-03-15T22:59:17.311Z,8.79
2018-03-15T23:01:44.920Z,8.77
2018-03-15T23:04:12.553Z,8.69
2018-03-15T23:06:40.152Z,8.65
2018-03-15T23:09:07.765Z,8.64
2018-03-15T23:11:35.348Z,8.60
2018-03-15T23:14:02.963Z,8.53
2018-03-15T23:16:30.552Z,8.50
2018-03-15T23:18:58.194Z,8.60
2018-03-15T23:21:25.829Z,8.61
2018-03-15T23:23:53.589Z,8.67
2018-03-15T23:26:21.209Z,8.61
2018-03-15T23:28:48.828Z,8.50
2018-03-15T23:31:16.478Z,8.52
2018-03-15T23:33:44.290Z,8.50
2018-03-15T23:36:11.898Z,8.50
2018-03-15T23:38:39.700Z,8.49
2018-03-15T23:41:07.314Z,8.57
2018-03-15T23:43:34.943Z,8.57
2018-03-15T23:46:02.543Z,8.50
2018-03-15T23:48:30.181Z,8.51
2018-03-15T23:50:57.772Z,8.50
2018-03-15T23:53:25.417Z,8.51
2018-03-15T23:55:53.019Z,8.50
2018-03-15T23:58:20.643Z,8.50
